Latest Weather Observations for Portland Airport

IDV60801

Issued at 3:32 pm EDT Tuesday 29 November 2022 (issued every 10 minutes, with the page automatically refreshed every 10 minutes)

About weather observations | Map of weather stations | Latest weather observations for VIC | Other Formats
Station Details ID: 090171 Name: CASHMORE AIRPORT Lat: -38.31 Lon: 141.47 Height: 80.9 m
Data from the previous 72 hours. | See also: Recent months at Portland Airport
Date/Time
EDT
Temp
°C
App
Temp
°C
Dew
Point
°C
Rel
Hum
%
Delta-T
°C
Wind Press
QNH
hPa
Press
MSL
hPa
Rain since
9am
mm
Dir  Spd
km/h
Gust
km/h
Spd
kts
Gust
kts
29/03:30pm 16.6 12.0 9.5 63 3.7 SW 24 33 13 18 1018.1 1018.0 0.0
29/03:00pm 15.6 11.1 8.6 63 3.6 WSW 22 32 12 17 1018.2 1018.1 0.0
29/02:30pm 15.8 11.5 9.5 66 3.3 W 22 33 12 18 1018.1 1018.0 0.0
29/02:00pm 16.5 12.0 9.9 65 3.5 W 24 33 13 18 1018.0 1017.9 0.0
29/01:30pm 16.5 12.7 9.7 64 3.6 W 20 32 11 17 1018.1 1018.0 0.0
29/01:00pm 16.3 12.7 10.4 68 3.1 WSW 20 28 11 15 1018.1 1018.0 0.0
29/12:30pm 14.9 10.1 8.8 67 3.1 WSW 24 30 13 16 1018.2 1018.1 0.0
29/12:00pm 15.7 11.5 9.8 68 3.1 W 22 32 12 17 1018.1 1018.0 0.0
29/11:30am 16.3 11.8 9.9 66 3.4 WSW 24 33 13 18 1018.0 1017.9 0.0
29/11:00am 15.4 10.2 8.9 65 3.3 WSW 26 37 14 20 1017.7 1017.6 0.0
29/10:30am 14.1 8.4 8.5 69 2.8 WSW 28 35 15 19 1017.6 1017.5 0.0
29/10:00am 14.2 8.9 8.6 69 2.8 WSW 26 33 14 18 1017.6 1017.5 0.0
29/09:30am 14.7 10.0 9.3 70 2.8 WSW 24 32 13 17 1017.3 1017.2 0.0
29/09:00am 13.7 8.5 9.0 73 2.4 WSW 26 41 14 22 1016.9 1016.8 1.2
29/08:30am 13.8 9.2 9.5 75 2.2 WSW 24 33 13 18 1016.5 1016.4 1.2
29/08:00am 13.3 9.5 9.7 79 1.8 W 20 28 11 15 1016.1 1016.0 1.2
29/07:30am 13.0 9.6 9.1 77 2.0 WSW 17 24 9 13 1015.6 1015.5 1.2
29/07:00am 12.1 9.0 8.8 80 1.7 SW 15 19 8 10 1015.2 1015.1 1.2
29/06:30am 11.5 7.8 8.0 79 1.7 WSW 17 26 9 14 1014.6 1014.5 1.2
29/06:00am 10.8 7.5 8.2 84 1.3 SW 15 20 8 11 1014.2 1014.1 1.2
29/05:30am 10.9 7.8 9.0 88 0.9 WSW 15 22 8 12 1013.8 1013.7 1.2
29/05:00am 10.9 8.2 8.8 87 1.0 WSW 13 17 7 9 1013.5 1013.4 1.2
29/04:30am 11.2 7.7 8.8 85 1.2 SW 17 22 9 12 1013.5 1013.4 1.2
29/04:00am 10.8 7.8 9.1 89 0.8 WSW 15 20 8 11 1013.3 1013.2 1.2
29/03:30am 11.0 7.9 8.9 87 1.0 SW 15 22 8 12 1013.3 1013.2 1.2
29/03:00am 11.6 8.4 9.9 89 0.9 SW 17 24 9 13 1013.2 1013.1 1.2
29/02:30am 11.9 8.2 10.3 90 0.8 SW 20 30 11 16 1013.0 1012.9 1.2
29/02:00am 12.5 8.3 9.9 84 1.3 SW 22 33 12 18 1013.0 1012.9 1.0
29/01:30am 12.6 8.4 9.8 83 1.4 SW 22 35 12 19 1012.9 1012.8 1.0
29/01:00am 12.4 7.8 9.6 83 1.4 WSW 24 33 13 18 1012.8 1012.7 1.0
29/12:30am 12.0 7.0 9.6 85 1.2 WSW 26 32 14 17 1012.8 1012.7 1.0
29/12:00am 12.3 7.1 10.4 88 1.0 WSW 28 37 15 20 1012.6 1012.5 1.0
 
Date/Time
EDT
Temp
°C
App
Temp
°C
Dew
Point
°C
Rel
Hum
%
Delta-T
°C
Wind Press
QNH
hPa
Press
MSL
hPa
Rain since
9am
mm
Dir  Spd
km/h
Gust
km/h
Spd
kts
Gust
kts
28/11:30pm 12.6 7.0 10.1 85 1.3 WSW 30 44 16 24 1012.4 1012.3 1.0
28/11:00pm 12.6 7.3 10.0 84 1.3 WSW 28 44 15 24 1012.0 1012.0 1.0
28/10:30pm 12.5 7.9 10.9 90 0.8 WSW 26 35 14 19 1011.7 1011.7 1.0
28/10:00pm 12.5 8.2 10.9 90 0.8 WSW 24 33 13 18 1011.5 1011.5 1.0
28/09:30pm 12.3 7.2 10.7 90 0.8 W 28 37 15 20 1011.0 1011.0 1.0
28/09:00pm 12.1 7.4 10.5 90 0.8 WSW 26 35 14 19 1010.6 1010.6 1.0
28/08:30pm 12.0 5.6 10.7 92 0.7 W 35 56 19 30 1010.5 1010.5 1.0
28/08:24pm 12.3 5.9 10.7 90 0.8 W 35 56 19 30 1010.2 1010.2 1.0
28/08:00pm 12.6 6.3 11.0 90 0.8 WSW 35 44 19 24 1010.1 1010.1 1.0
28/07:35pm 12.4 6.3 10.6 89 0.9 WSW 33 46 18 25 1009.7 1009.7 1.0
28/07:30pm 12.3 5.5 10.7 90 0.8 WSW 37 57 20 31 1009.7 1009.7 1.0
28/07:21pm 12.2 5.9 10.9 92 0.7 WSW 35 57 19 31 1009.8 1009.8 1.0
28/07:19pm 12.5 6.6 11.2 92 0.7 W 33 52 18 28 1009.6 1009.6 1.0
28/07:00pm 13.0 7.2 11.6 91 0.7 W 33 46 18 25 1009.1 1009.1 0.8
28/06:56pm 12.8 7.2 11.5 92 0.7 W 32 43 17 23 1009.1 1009.1 0.8
28/06:34pm 13.0 7.3 11.2 89 1.0 W 32 44 17 24 1009.0 1009.0 0.8
28/06:30pm 13.4 7.5 10.6 83 1.5 W 32 44 17 24 1008.9 1008.9 0.8
28/06:00pm 13.9 8.1 10.9 82 1.6 W 32 46 17 25 1008.8 1008.8 0.8
28/05:58pm 14.7 9.5 12.7 88 1.1 W 32 50 17 27 1008.8 1008.8 0.8
28/05:30pm 13.4 7.7 11.1 86 1.2 W 32 43 17 23 1008.8 1008.8 0.6
28/05:01pm 13.7 7.6 11.9 89 1.0 W 35 48 19 26 1008.7 1008.7 0.6
28/05:00pm 13.3 7.1 11.5 89 1.0 W 35 46 19 25 1008.8 1008.8 0.6
28/04:41pm 12.9 6.0 11.5 91 0.7 W 39 57 21 31 1009.0 1009.0 0.6
28/04:40pm 13.0 5.7 11.4 90 0.8 W 41 57 22 31 1008.9 1008.9 0.6
28/04:30pm 14.6 8.4 10.2 75 2.3 WNW 33 52 18 28 1008.7 1008.7 0.0
28/04:00pm 14.3 8.7 12.0 86 1.2 W 33 50 18 27 1009.0 1009.0 0.0
28/03:41pm 12.7 5.6 10.8 88 1.0 W 39 61 21 33 1009.0 1009.0 0.0
28/03:37pm 13.7 7.9 11.6 87 1.1 W 33 54 18 29 1009.0 1009.0 0.0
28/03:30pm 13.5 7.4 11.6 88 1.0 W 35 52 19 28 1009.0 1009.0 0.0
28/03:29pm 13.5 7.3 11.4 87 1.1 W 35 54 19 29 1009.0 1009.0 0.0
28/03:00pm 15.2 8.1 11.0 76 2.2 W 39 54 21 29 1008.9 1008.9 0.0
28/02:37pm 15.0 8.5 10.2 73 2.5 W 35 54 19 29 1009.1 1009.1 0.0
28/02:30pm 15.2 7.8 10.0 71 2.7 W 39 54 21 29 1009.0 1009.0 0.0
28/02:04pm 16.0 10.5 10.7 71 2.8 WNW 30 48 16 26 1009.0 1009.0 0.0
28/02:00pm 15.6 10.6 11.0 74 2.5 WNW 28 43 15 23 1009.0 1009.0 0.0
28/01:30pm 14.8 8.1 9.6 71 2.7 WNW 35 54 19 29 1008.9 1008.9 0.0
28/01:23pm 15.3 8.7 10.1 71 2.7 WNW 35 54 19 29 1009.0 1009.0 0.0
28/01:00pm 15.5 9.5 10.7 73 2.6 WNW 33 50 18 27 1009.1 1009.1 0.0
28/12:42pm 14.6 8.6 10.0 74 2.4 W 32 50 17 27 1009.2 1009.2 0.0
28/12:30pm 13.2 7.3 10.6 84 1.4 W 32 46 17 25 1009.3 1009.3 0.0
28/12:00pm 14.8 7.2 9.0 68 3.0 WNW 39 50 21 27 1009.3 1009.3 0.0
28/11:30am 14.9 8.3 10.1 73 2.5 WNW 35 48 19 26 1009.2 1009.2 0.0
28/11:00am 14.3 8.2 9.7 74 2.4 WNW 32 44 17 24 1009.3 1009.3 0.0
28/10:46am 13.4 7.0 10.6 83 1.5 W 35 54 19 29 1009.4 1009.4 0.0
28/10:30am 14.0 6.4 7.5 65 3.2 W 37 50 20 27 1009.3 1009.3 0.0
28/10:00am 13.7 8.6 9.2 74 2.3 WNW 26 39 14 21 1009.3 1009.3 0.0
28/09:30am 12.2 6.7 9.2 82 1.5 WNW 28 39 15 21 1009.5 1009.5 0.0
28/09:09am 11.6 5.3 9.0 84 1.3 W 32 50 17 27 1009.4 1009.4 0.0
28/09:00am 11.9 5.5 9.5 85 1.2 W 33 44 18 24 1009.2 1009.2 1.2
28/08:30am 11.8 7.1 9.2 84 1.3 W 24 35 13 19 1008.9 1008.9 1.2
28/08:00am 12.2 8.2 9.0 81 1.6 W 20 30 11 16 1008.7 1008.7 1.2
28/07:30am 11.3 7.1 8.2 81 1.5 W 20 32 11 17 1008.5 1008.5 1.2
28/07:00am 11.5 7.1 7.6 77 1.9 W 20 26 11 14 1008.3 1008.3 1.2
28/06:30am 11.0 6.9 8.6 85 1.2 W 20 30 11 16 1008.2 1008.2 1.2
28/06:00am 10.7 6.2 7.0 78 1.8 W 20 30 11 16 1007.9 1007.9 1.2
28/05:30am 10.7 5.4 6.6 76 1.9 W 24 37 13 20 1007.8 1007.7 1.2
28/05:00am 10.7 7.2 8.8 88 0.9 WNW 17 28 9 15 1007.6 1007.5 1.2
28/04:30am 10.9 7.1 7.6 80 1.6 W 17 24 9 13 1007.6 1007.5 1.0
28/04:00am 10.3 6.3 6.6 78 1.7 W 17 24 9 13 1007.6 1007.5 1.0
28/03:30am 10.7 6.6 6.1 73 2.1 W 17 24 9 13 1007.6 1007.5 1.0
28/03:00am 10.5 5.2 6.6 77 1.8 WSW 24 32 13 17 1007.7 1007.6 1.0
28/02:30am 10.7 6.0 6.1 73 2.1 W 20 30 11 16 1007.9 1007.9 1.0
28/02:00am 10.3 5.7 5.7 73 2.1 W 19 30 10 16 1008.1 1008.1 1.0
28/01:30am 10.4 5.7 6.2 75 2.0 W 20 30 11 16 1008.3 1008.3 1.0
28/01:00am 10.4 4.8 5.6 72 2.2 WSW 24 35 13 19 1008.5 1008.5 1.0
28/12:30am 9.7 5.5 5.9 77 1.8 WSW 17 22 9 12 1008.6 1008.6 1.0
28/12:00am 8.8 5.1 6.1 83 1.2 W 15 19 8 10 1008.9 1008.9 1.0
 
Date/Time
EDT
Temp
°C
App
Temp
°C
Dew
Point
°C
Rel
Hum
%
Delta-T
°C
Wind Press
QNH
hPa
Press
MSL
hPa
Rain since
9am
mm
Dir  Spd
km/h
Gust
km/h
Spd
kts
Gust
kts
27/11:30pm 9.0 5.2 5.9 81 1.4 WSW 15 19 8 10 1009.0 1009.0 1.0
27/11:00pm 9.5 7.7 8.1 91 0.7 W 7 9 4 5 1009.0 1009.0 1.0
27/10:30pm 9.6 7.1 8.2 91 0.7 SW 11 17 6 9 1009.2 1009.2 1.0
27/10:00pm 10.2 7.4 6.9 80 1.6 SW 11 15 6 8 1009.0 1009.0 0.8
27/09:30pm 9.8 7.0 7.1 83 1.3 WNW 11 15 6 8 1008.7 1008.7 0.8
27/09:00pm 9.6 6.7 6.5 81 1.5 WNW 11 15 6 8 1008.6 1008.6 0.8
27/08:30pm 10.9 6.9 6.8 76 1.9 W 17 22 9 12 1008.4 1008.4 0.8
27/08:00pm 11.6 7.6 6.7 72 2.3 WSW 17 22 9 12 1008.2 1008.2 0.8
27/07:30pm 11.9 7.4 6.0 67 2.8 WSW 19 24 10 13 1007.8 1007.7 0.8
27/07:00pm 12.5 7.9 6.3 66 3.0 WSW 20 26 11 14 1007.5 1007.4 0.8
27/06:30pm 13.0 7.2 6.1 63 3.3 WSW 26 33 14 18 1007.4 1007.3 0.8
27/06:00pm 13.3 7.7 7.1 66 3.0 W 26 37 14 20 1007.2 1007.1 0.8
27/05:30pm 12.5 6.7 8.0 74 2.2 WSW 28 37 15 20 1007.1 1007.0 0.8
27/05:00pm 12.6 6.8 6.2 65 3.1 WSW 26 35 14 19 1007.0 1006.9 0.8
27/04:30pm 14.5 8.8 6.8 60 3.8 W 26 37 14 20 1006.8 1006.7 0.8
27/04:00pm 14.4 7.9 6.5 59 3.8 WSW 30 41 16 22 1006.8 1006.7 0.8
27/03:30pm 12.8 6.0 7.0 68 2.8 WSW 32 43 17 23 1006.6 1006.5 0.8
27/03:00pm 13.6 7.2 6.9 64 3.3 WSW 30 39 16 21 1006.6 1006.5 0.8
27/02:30pm 14.1 7.1 6.9 62 3.5 WSW 33 46 18 25 1006.5 1006.4 0.8
27/02:00pm 15.2 8.7 8.0 62 3.6 WSW 32 41 17 22 1006.4 1006.3 0.8
27/01:30pm 13.9 6.8 7.9 67 3.0 WSW 35 46 19 25 1006.3 1006.2 0.8
27/01:06pm 12.4 7.4 9.6 83 1.4 WSW 26 32 14 17 1006.3 1006.2 0.8
27/01:00pm 11.9 7.0 9.8 87 1.1 WSW 26 33 14 18 1006.3 1006.2 0.8
27/12:50pm 11.8 5.7 9.9 88 1.0 WSW 32 44 17 24 1006.3 1006.2 0.6
27/12:30pm 14.0 7.5 8.2 68 2.9 W 32 44 17 24 1005.9 1005.8 0.6
27/12:00pm 14.5 8.9 10.1 75 2.3 W 30 37 16 20 1005.7 1005.6 0.6
27/11:30am 14.1 10.3 12.3 89 1.0 W 24 33 13 18 1005.7 1005.6 0.6
27/11:07am 13.5 9.8 12.7 95 0.4 W 24 35 13 19 1005.8 1005.7 0.6
27/11:00am 12.6 8.2 11.8 95 0.4 W 26 35 14 19 1005.8 1005.7 0.6
27/10:42am 12.7 7.4 11.1 90 0.8 W 30 43 16 23 1005.7 1005.6 0.0
27/10:30am 13.1 8.2 11.3 89 1.0 WSW 28 41 15 22 1005.7 1005.6 0.0
27/10:00am 14.4 8.5 9.0 70 2.8 W 30 41 16 22 1005.3 1005.2 0.0
27/09:30am 13.6 7.8 9.6 77 2.1 W 30 41 16 22 1005.2 1005.1 0.0
27/09:00am 14.3 9.7 10.9 80 1.8 W 26 35 14 19 1005.1 1005.0 0.8
27/08:30am 13.3 9.4 10.8 85 1.3 W 22 30 12 16 1004.8 1004.7 0.8
27/08:00am 13.0 9.6 11.2 89 1.0 W 20 30 11 16 1004.7 1004.6 0.8
27/07:30am 12.1 8.3 11.3 95 0.4 W 22 32 12 17 1004.5 1004.4 0.8
27/07:00am 12.4 8.4 8.9 79 1.8 WNW 20 28 11 15 1004.2 1004.1 0.8
27/06:30am 11.8 8.4 9.2 84 1.3 W 17 22 9 12 1004.1 1004.0 0.8
27/06:00am 11.2 7.7 8.8 85 1.2 W 17 22 9 12 1003.8 1003.7 0.8
27/05:30am 10.9 7.7 8.3 84 1.3 WSW 15 19 8 10 1003.8 1003.7 0.8
27/05:00am 11.9 7.6 9.5 85 1.2 WSW 22 30 12 16 1003.9 1003.8 0.8
27/04:30am 11.9 8.7 11.1 95 0.4 W 19 28 10 15 1003.8 1003.7 0.8
27/04:14am 12.0 9.2 11.2 95 0.4 W 17 22 9 12 1003.8 1003.7 0.8
27/04:02am 11.8 7.9 10.9 94 0.5 WSW 22 33 12 18 1003.9 1003.8 0.8
27/04:00am 11.8 7.9 10.9 94 0.5 WSW 22 33 12 18 1003.9 1003.8 0.6
27/03:30am 12.0 8.5 10.9 93 0.6 W 20 33 11 18 1004.0 1003.9 0.6
27/03:26am 12.0 7.7 10.7 92 0.7 W 24 37 13 20 1004.1 1004.0 0.6
27/03:07am 12.2 9.8 11.4 95 0.4 W 15 19 8 10 1004.1 1004.0 0.6
27/03:00am 12.0 10.0 11.4 96 0.3 WSW 13 19 7 10 1004.2 1004.1 0.6
27/02:30am 12.1 7.1 10.8 92 0.7 WSW 28 41 15 22 1004.6 1004.5 0.6
27/02:00am 12.6 9.0 9.8 83 1.4 W 19 24 10 13 1004.7 1004.6 0.6
27/01:30am 12.4 8.5 9.6 83 1.4 W 20 30 11 16 1004.8 1004.7 0.6
27/01:00am 12.8 8.8 11.7 93 0.6 WSW 24 33 13 18 1005.0 1004.9 0.6
27/12:30am 13.1 10.3 12.5 96 0.3 W 19 30 10 16 1005.3 1005.2 0.6
27/12:22am 13.0 10.1 12.4 96 0.3 WSW 19 24 10 13 1005.2 1005.1 0.6
27/12:10am 12.9 9.5 12.4 97 0.3 WSW 22 28 12 15 1005.4 1005.3 0.6
27/12:00am 13.2 10.9 12.9 98 0.2 W 17 22 9 12 1005.4 1005.3 0.6
 
Date/Time
EDT
Temp
°C
App
Temp
°C
Dew
Point
°C
Rel
Hum
%
Delta-T
°C
Wind Press
QNH
hPa
Press
MSL
hPa
Rain since
9am
mm
Dir  Spd
km/h
Gust
km/h
Spd
kts
Gust
kts
26/11:55pm 13.1 10.7 12.8 98 0.2 W 17 22 9 12 1005.4 1005.3 0.6
26/11:53pm 13.1 10.7 12.8 98 0.2 W 17 24 9 13 1005.4 1005.3 0.6
26/11:35pm 13.1 9.3 12.3 95 0.4 WSW 24 33 13 18 1005.4 1005.3 0.4
26/11:34pm 13.2 9.4 12.3 94 0.5 WSW 24 32 13 17 1005.4 1005.3 0.4
26/11:30pm 13.4 9.2 12.3 93 0.6 W 26 35 14 19 1005.3 1005.2 0.0
26/11:06pm 13.6 10.3 12.7 94 0.5 W 22 35 12 19 1005.3 1005.2 0.0
26/11:00pm 13.6 9.1 12.5 93 0.6 WSW 28 39 15 21 1005.3 1005.2 0.0
26/10:30pm 14.5 10.5 12.9 90 0.9 W 26 35 14 19 1005.0 1004.9 0.0
26/10:25pm 14.5 10.9 13.0 91 0.8 W 24 35 13 19 1004.9 1004.8 0.0
26/10:01pm 14.6 9.3 12.5 87 1.2 W 32 43 17 23 1004.7 1004.6 0.0
26/10:00pm 14.6 9.3 12.5 87 1.2 W 32 43 17 23 1004.7 1004.6 0.0
26/09:30pm 14.8 10.0 13.0 89 1.0 W 30 41 16 22 1004.4 1004.3 0.0
26/09:00pm 14.9 9.7 12.9 88 1.1 WNW 32 46 17 25 1004.3 1004.2 0.0
26/08:51pm 14.8 10.0 12.8 88 1.1 WNW 30 44 16 24 1004.2 1004.1 0.0
26/08:30pm 15.1 10.1 13.3 89 1.0 WNW 32 46 17 25 1003.9 1003.8 0.0
26/08:19pm 15.2 10.0 13.4 89 1.0 WNW 33 46 18 25 1003.7 1003.6 0.0
26/08:00pm 15.5 9.9 13.3 87 1.2 WNW 35 46 19 25 1003.3 1003.2 0.0
26/07:30pm 16.1 9.7 13.2 83 1.6 WNW 39 48 21 26 1003.1 1003.0 0.0
26/07:00pm 17.0 10.9 12.9 77 2.3 WNW 37 50 20 27 1002.6 1002.5 0.0
26/06:30pm 17.1 10.3 13.2 78 2.2 W 41 61 22 33 1002.2 1002.1 0.0
26/06:05pm 18.7 12.3 13.1 70 3.2 WNW 39 76 21 41 1001.5 1001.4 0.0
26/06:04pm 18.9 12.8 12.9 68 3.4 WNW 37 63 20 34 1001.6 1001.5 0.0
26/06:00pm 20.6 15.1 12.6 60 4.6 NW 33 52 18 28 1001.2 1001.1 0.0
26/05:30pm 21.0 14.4 12.7 59 4.7 NNW 39 69 21 37 1000.9 1000.8 0.0
26/05:00pm 20.8 15.0 12.8 60 4.6 NNW 35 56 19 30 1000.8 1000.7 0.0
26/04:32pm 19.7 15.5 13.4 67 3.6 NNW 28 50 15 27 1000.8 1000.7 0.0
26/04:30pm 19.6 15.7 14.4 72 3.0 NNW 28 43 15 23 1001.0 1000.9 0.0
26/04:09pm 17.7 13.3 13.0 74 2.6 NW 28 46 15 25 1001.6 1001.5 0.0
26/04:00pm 18.2 12.9 12.6 70 3.1 NW 32 46 17 25 1002.0 1001.9 0.0
26/03:33pm 19.0 12.9 13.0 68 3.4 WNW 37 56 20 30 1002.2 1002.1 0.0

Other formats

Comma delimited format used in spreadsheet applications
http://www.bom.gov.au/fwo/IDV60801/IDV60801.94828.axf

JavaScript Object Notation format (JSON) in row-major order
http://www.bom.gov.au/fwo/IDV60801/IDV60801.94828.json

Data quality

Most of these data are generated automatically and are frequently updated. Quality checks on data are not normally performed. It is possible for incorrect values to appear. Refer to information at About Latest Weather Observations and please check the disclaimer before using these data.